createdAt,value
2022-12-09T00:00:29.414Z,97935.56
2022-12-09T00:02:56.291Z,97933.34
2022-12-09T00:05:23.054Z,97936.84
2022-12-09T00:07:50.041Z,97934.97
2022-12-09T00:10:16.903Z,97938.72
2022-12-09T00:12:43.873Z,97935.19
2022-12-09T00:15:11.213Z,97939.75
2022-12-09T00:17:37.980Z,97933.56
2022-12-09T00:20:06.326Z,97913.44
2022-12-09T00:22:33.373Z,97920.94
2022-12-09T00:25:00.341Z,97920.81
2022-12-09T00:27:27.291Z,97906.09
2022-12-09T00:29:54.078Z,97910.06
2022-12-09T00:32:21.010Z,97902.56
2022-12-09T00:34:49.436Z,97912.75
2022-12-09T00:37:16.249Z,97915.69
2022-12-09T00:39:43.035Z,97918.59
2022-12-09T00:42:09.878Z,97915.22
2022-12-09T00:44:36.632Z,97915.91
2022-12-09T00:47:03.625Z,97918.13
2022-12-09T00:49:30.525Z,97922.94
2022-12-09T00:51:57.575Z,97920.25
2022-12-09T00:54:24.605Z,97925.84
2022-12-09T00:56:51.579Z,97920.47
2022-12-09T00:59:18.300Z,97911.00
2022-12-09T01:01:45.258Z,97914.75
2022-12-09T01:04:12.147Z,97916.97
2022-12-09T01:06:39.011Z,97912.06
2022-12-09T01:09:05.959Z,97906.69
2022-12-09T01:11:32.801Z,97904.00
2022-12-09T01:14:03.575Z,97908.31
2022-12-09T01:16:32.758Z,97916.62
2022-12-09T01:19:03.060Z,97903.41
2022-12-09T01:21:30.570Z,97906.91
2022-12-09T01:23:57.504Z,97901.75
2022-12-09T01:26:24.552Z,97901.75
2022-12-09T01:28:53.067Z,97905.25
2022-12-09T01:31:23.103Z,97909.59
2022-12-09T01:33:50.725Z,97907.34
2022-12-09T01:36:20.959Z,97907.34
2022-12-09T01:38:48.714Z,97899.06
2022-12-09T01:41:18.266Z,97900.09
2022-12-09T01:43:45.955Z,97887.47
2022-12-09T01:46:13.011Z,97904.66
2022-12-09T01:48:46.498Z,97910.28
2022-12-09T01:51:19.851Z,97904.44
2022-12-09T01:53:50.319Z,97907.34
2022-12-09T01:56:22.408Z,97899.88
2022-12-09T01:58:50.936Z,97899.28
2022-12-09T02:01:18.920Z,97905.47
2022-12-09T02:03:46.595Z,97904.31
2022-12-09T02:06:14.993Z,97906.78
2022-12-09T02:08:42.705Z,97910.75
2022-12-09T02:11:37.553Z,97906.66
2022-12-09T02:14:07.659Z,97903.16
2022-12-09T02:17:19.155Z,97903.38
2022-12-09T02:20:01.861Z,97885.38
2022-12-09T02:22:38.467Z,97881.87
2022-12-09T02:25:24.449Z,97881.06
2022-12-09T02:28:07.405Z,97863.06
2022-12-09T02:30:49.842Z,97867.84
2022-12-09T02:33:31.590Z,97874.06
2022-12-09T02:36:05.188Z,97858.97
2022-12-09T02:38:33.546Z,97862.25
2022-12-09T02:41:33.656Z,97857.91
2022-12-09T02:44:06.735Z,97871.59
2022-12-09T02:46:36.420Z,97875.91
2022-12-09T02:49:04.297Z,97878.12
2022-12-09T02:51:35.259Z,97868.44
2022-12-09T02:54:14.167Z,97874.06
2022-12-09T02:56:49.353Z,97870.78
2022-12-09T02:59:16.371Z,97860.25
2022-12-09T03:02:03.932Z,97864.34
2022-12-09T03:04:32.194Z,97861.66
2022-12-09T03:07:31.072Z,97856.03
2022-12-09T03:10:07.049Z,97857.91
2022-12-09T03:12:37.347Z,97854.66
2022-12-09T03:15:07.463Z,97851.37
2022-12-09T03:17:37.750Z,97851.37
2022-12-09T03:20:24.974Z,97856.16
2022-12-09T03:22:57.155Z,97862.38
2022-12-09T03:25:33.034Z,97853.00
2022-12-09T03:28:07.411Z,97852.19
2022-12-09T03:30:39.292Z,97849.75
2022-12-09T03:33:08.547Z,97836.53
2022-12-09T03:35:43.405Z,97835.72
2022-12-09T03:38:14.706Z,97830.94
2022-12-09T03:40:42.849Z,97838.16
2022-12-09T03:43:26.089Z,97828.22
2022-12-09T03:45:57.537Z,97833.38
2022-12-09T03:48:24.975Z,97843.78
2022-12-09T03:51:09.860Z,97837.59
2022-12-09T03:53:44.979Z,97827.88
2022-12-09T03:56:21.062Z,97833.84
2022-12-09T03:58:51.366Z,97827.66
2022-12-09T04:01:19.334Z,97829.28
2022-12-09T04:03:52.084Z,97824.97
2022-12-09T04:06:19.139Z,97824.38
2022-12-09T04:08:46.454Z,97819.00
2022-12-09T04:11:13.637Z,97820.66
2022-12-09T04:13:40.626Z,97816.53
2022-12-09T04:16:07.844Z,97812.00
2022-12-09T04:18:35.183Z,97809.31
2022-12-09T04:21:07.342Z,97809.88
2022-12-09T04:23:37.997Z,97812.81
2022-12-09T04:26:14.209Z,97814.69
2022-12-09T04:28:41.206Z,97809.66
2022-12-09T04:31:16.525Z,97806.16
2022-12-09T04:33:44.278Z,97805.34
2022-12-09T04:36:16.987Z,97801.81
2022-12-09T04:38:45.065Z,97798.91
2022-12-09T04:41:13.117Z,97791.41
2022-12-09T04:43:40.348Z,97802.16
2022-12-09T04:46:11.262Z,97795.97
2022-12-09T04:48:38.647Z,97803.00
2022-12-09T04:51:09.215Z,97810.25
2022-12-09T04:53:37.155Z,97790.59
2022-12-09T04:56:24.418Z,97797.84
2022-12-09T04:58:51.826Z,97795.41
2022-12-09T05:01:26.600Z,97800.78
2022-12-09T05:03:57.030Z,97796.22
2022-12-09T05:06:24.526Z,97798.09
2022-12-09T05:08:52.648Z,97794.59
2022-12-09T05:11:21.000Z,97797.28
2022-12-09T05:13:48.100Z,97792.72
2022-12-09T05:16:17.771Z,97791.06
2022-12-09T05:18:46.638Z,97790.03
2022-12-09T05:21:16.664Z,97790.03
2022-12-09T05:23:44.361Z,97788.97
2022-12-09T05:26:14.540Z,97781.38
2022-12-09T05:28:41.775Z,97779.75
2022-12-09T05:31:13.373Z,97785.94
2022-12-09T05:33:41.430Z,97787.81
2022-12-09T05:36:13.255Z,97785.13
2022-12-09T05:38:40.578Z,97781.38
2022-12-09T05:41:08.314Z,97774.13
2022-12-09T05:43:36.900Z,97774.94
2022-12-09T05:46:05.683Z,97764.78
2022-12-09T05:48:33.537Z,97758.81
2022-12-09T05:51:02.861Z,97755.31
2022-12-09T05:53:30.992Z,97755.06
2022-12-09T05:55:58.402Z,97742.69
2022-12-09T05:58:25.860Z,97749.47
2022-12-09T06:00:56.632Z,97739.75
2022-12-09T06:03:24.696Z,97738.94
2022-12-09T06:05:52.344Z,97732.53
2022-12-09T06:08:19.739Z,97732.53
2022-12-09T06:10:47.247Z,97724.94
2022-12-09T06:13:14.729Z,97725.13
2022-12-09T06:15:41.961Z,97720.63
2022-12-09T06:18:09.728Z,97718.75
2022-12-09T06:20:42.449Z,97709.84
2022-12-09T06:23:09.708Z,97704.47
2022-12-09T06:25:36.911Z,97699.94
2022-12-09T06:28:04.742Z,97700.94
2022-12-09T06:30:32.440Z,97699.69
2022-12-09T06:33:00.693Z,97693.72
2022-12-09T06:35:27.880Z,97685.06
2022-12-09T06:37:55.229Z,97689.38
2022-12-09T06:40:22.799Z,97685.88
2022-12-09T06:42:51.401Z,97685.28
2022-12-09T06:45:20.091Z,97684.25
2022-12-09T06:47:47.778Z,97672.09
2022-12-09T06:50:16.124Z,97662.97
2022-12-09T06:52:43.526Z,97660.87
2022-12-09T06:55:13.120Z,97661.69
2022-12-09T06:57:40.726Z,97657.38
2022-12-09T07:00:08.433Z,97652.00
2022-12-09T07:02:37.181Z,97644.75
2022-12-09T07:05:05.544Z,97659.25
2022-12-09T07:07:33.920Z,97649.88
2022-12-09T07:10:08.713Z,97646.37
2022-12-09T07:12:35.920Z,97644.50
2022-12-09T07:15:03.239Z,97641.81
2022-12-09T07:17:30.422Z,97644.88
2022-12-09T07:20:02.016Z,97639.50
2022-12-09T07:22:34.314Z,97645.34
2022-12-09T07:25:01.597Z,97642.75
2022-12-09T07:27:28.660Z,97651.41
2022-12-09T07:29:55.535Z,97657.59
2022-12-09T07:32:22.900Z,97650.09
2022-12-09T07:34:50.222Z,97648.47
2022-12-09T07:37:17.590Z,97652.78
2022-12-09T07:39:44.832Z,97654.41
2022-12-09T07:42:11.966Z,97656.06
2022-12-09T07:44:39.383Z,97656.88
2022-12-09T07:47:06.195Z,97660.63
2022-12-09T07:49:33.351Z,97668.44
2022-12-09T07:52:00.775Z,97668.19
2022-12-09T07:54:27.764Z,97669.81
2022-12-09T07:56:54.750Z,97674.16
2022-12-09T07:59:21.728Z,97665.28
2022-12-09T08:01:48.692Z,97666.66
2022-12-09T08:04:16.172Z,97660.47
2022-12-09T08:06:43.510Z,97650.19
2022-12-09T08:09:13.580Z,97647.25
2022-12-09T08:11:41.802Z,97645.97
2022-12-09T08:14:12.850Z,97634.97
2022-12-09T08:16:41.956Z,97638.22
2022-12-09T08:19:10.183Z,97634.28
2022-12-09T08:21:38.331Z,97636.38
2022-12-09T08:24:07.744Z,97632.66
2022-12-09T08:26:35.349Z,97630.03
2022-12-09T08:29:02.644Z,97632.50
2022-12-09T08:31:30.353Z,97627.94
2022-12-09T08:33:58.581Z,97629.31
2022-12-09T08:36:28.408Z,97633.63
2022-12-09T08:38:58.217Z,97637.72
2022-12-09T08:41:38.234Z,97622.97
2022-12-09T08:44:11.123Z,97621.34
2022-12-09T08:46:41.007Z,97609.28
2022-12-09T08:49:08.404Z,97621.09
2022-12-09T08:51:35.966Z,97615.00
2022-12-09T08:54:04.230Z,97628.19
2022-12-09T08:56:31.500Z,97616.16
2022-12-09T08:58:58.739Z,97604.34
2022-12-09T09:01:32.672Z,97605.16
2022-12-09T09:04:10.084Z,97607.84
2022-12-09T09:06:39.792Z,97604.91
2022-12-09T09:09:09.095Z,97612.50
2022-12-09T09:11:36.741Z,97601.25
2022-12-09T09:14:06.797Z,97603.94
2022-12-09T09:16:35.018Z,97600.75
2022-12-09T09:19:05.997Z,97597.56
2022-12-09T09:21:34.716Z,97596.50
2022-12-09T09:24:02.342Z,97579.56
2022-12-09T09:26:30.266Z,97581.75
2022-12-09T09:28:57.915Z,97567.00
2022-12-09T09:31:26.037Z,97563.84
2022-12-09T09:33:53.296Z,97559.84
2022-12-09T09:36:24.096Z,97564.16
2022-12-09T09:38:54.039Z,97557.47
2022-12-09T09:41:27.211Z,97561.78
2022-12-09T09:43:56.685Z,97556.41
2022-12-09T09:46:46.113Z,97543.75
2022-12-09T09:49:19.739Z,97537.06
2022-12-09T09:51:47.639Z,97530.63
2022-12-09T09:54:16.085Z,97528.75
2022-12-09T09:56:55.268Z,97525.00
2022-12-09T09:59:31.235Z,97520.44
2022-12-09T10:02:46.153Z,97514.78
2022-12-09T10:05:24.444Z,97509.97
2022-12-09T10:08:06.277Z,97502.72
2022-12-09T10:10:36.658Z,97515.09
2022-12-09T10:13:17.937Z,97508.09
2022-12-09T10:15:51.036Z,97508.91
2022-12-09T10:18:26.160Z,97507.84
2022-12-09T10:20:53.819Z,97502.25
2022-12-09T10:23:21.636Z,97502.25
2022-12-09T10:25:57.380Z,97499.34
2022-12-09T10:28:35.195Z,97492.06
2022-12-09T10:31:03.380Z,97492.87
2022-12-09T10:33:35.328Z,97485.87
2022-12-09T10:36:02.892Z,97472.41
2022-12-09T10:38:31.635Z,97461.66
2022-12-09T10:41:13.213Z,97464.09
2022-12-09T10:43:44.188Z,97453.31
2022-12-09T10:46:20.552Z,97438.00
2022-12-09T10:48:49.011Z,97448.50
2022-12-09T10:51:21.598Z,97440.19
2022-12-09T10:54:00.031Z,97441.56
2022-12-09T10:56:35.877Z,97436.97
2022-12-09T10:59:24.210Z,97422.72
2022-12-09T11:01:58.831Z,97412.50
2022-12-09T11:04:35.045Z,97399.03
2022-12-09T11:07:07.728Z,97402.53
2022-12-09T11:09:37.817Z,97394.47
2022-12-09T11:12:07.675Z,97399.03
2022-12-09T11:14:39.051Z,97392.59
2022-12-09T11:17:21.228Z,97372.69
2022-12-09T11:19:54.490Z,97369.72
2022-12-09T11:22:42.419Z,97376.50
2022-12-09T11:25:12.915Z,97368.41
2022-12-09T11:27:51.658Z,97358.44
2022-12-09T11:30:30.794Z,97361.97
2022-12-09T11:33:19.483Z,97359.81
2022-12-09T11:35:46.951Z,97349.88
2022-12-09T11:38:17.325Z,97347.97
2022-12-09T11:40:57.759Z,97346.66
2022-12-09T11:43:43.061Z,97348.31
2022-12-09T11:46:12.763Z,97336.47
2022-12-09T11:48:44.027Z,97326.53
2022-12-09T11:51:23.812Z,97323.84
2022-12-09T11:53:54.545Z,97323.56
2022-12-09T11:56:27.981Z,97322.25
2022-12-09T11:59:18.038Z,97322.25
2022-12-09T12:01:47.683Z,97321.75
2022-12-09T12:04:18.630Z,97314.47
2022-12-09T12:07:07.105Z,97323.38
2022-12-09T12:09:58.654Z,97323.38
2022-12-09T12:12:39.183Z,97322.28
2022-12-09T12:15:26.596Z,97332.81
2022-12-09T12:17:56.519Z,97325.28
2022-12-09T12:20:43.436Z,97332.56
2022-12-09T12:23:51.604Z,97327.72
2022-12-09T12:26:41.156Z,97325.03
2022-12-09T12:29:17.926Z,97326.66
2022-12-09T12:32:20.788Z,97321.25
2022-12-09T12:34:56.691Z,97317.50
2022-12-09T12:37:45.286Z,97309.16
2022-12-09T12:40:42.199Z,97309.44
2022-12-09T12:43:57.953Z,97301.91
2022-12-09T12:46:30.255Z,97299.19
2022-12-09T12:49:21.346Z,97295.44
2022-12-09T12:52:39.468Z,97283.03
2022-12-09T12:55:31.368Z,97281.97
2022-12-09T12:58:06.088Z,97275.50
2022-12-09T13:00:52.069Z,97271.75
2022-12-09T13:03:27.454Z,97266.94
2022-12-09T13:05:57.853Z,97259.69
2022-12-09T13:08:37.268Z,97260.50
2022-12-09T13:11:16.190Z,97260.50
2022-12-09T13:13:47.679Z,97252.97
2022-12-09T13:16:29.032Z,97243.25
2022-12-09T13:19:07.093Z,97231.41
2022-12-09T13:21:34.950Z,97227.66
2022-12-09T13:24:33.484Z,97216.88
2022-12-09T13:27:11.275Z,97218.75
2022-12-09T13:29:57.511Z,97213.09
2022-12-09T13:32:50.478Z,97213.09
2022-12-09T13:35:33.452Z,97213.09
2022-12-09T13:38:00.985Z,97210.97
2022-12-09T13:40:32.045Z,97222.81
2022-12-09T13:43:04.623Z,97224.69
2022-12-09T13:45:48.153Z,97222.81
2022-12-09T13:48:17.345Z,97220.13
2022-12-09T13:50:57.794Z,97223.62
2022-12-09T13:53:30.956Z,97229.56
2022-12-09T13:56:08.314Z,97216.91
2022-12-09T13:59:16.757Z,97217.97
2022-12-09T14:02:30.124Z,97212.59
2022-12-09T14:05:07.596Z,97205.31
2022-12-09T14:07:47.087Z,97207.75
2022-12-09T14:10:39.160Z,97212.31
2022-12-09T14:13:38.312Z,97213.41
2022-12-09T14:16:14.131Z,97216.91
2022-12-09T14:18:42.096Z,97208.81
2022-12-09T14:21:17.939Z,97205.06
2022-12-09T14:24:08.133Z,97194.53
2022-12-09T14:26:39.683Z,97196.16
2022-12-09T14:29:06.521Z,97199.94
2022-12-09T14:31:43.095Z,97191.03
2022-12-09T14:34:25.710Z,97187.25
2022-12-09T14:37:02.553Z,97192.66
2022-12-09T14:39:37.018Z,97184.84
2022-12-09T14:42:35.408Z,97177.56
2022-12-09T14:45:02.151Z,97184.84
2022-12-09T14:47:32.538Z,97185.38
2022-12-09T14:50:14.613Z,97174.59
2022-12-09T14:53:01.150Z,97167.34
2022-12-09T14:55:30.408Z,97158.44
2022-12-09T14:58:00.100Z,97145.78
2022-12-09T15:00:40.278Z,97142.00
2022-12-09T15:03:39.534Z,97136.34
2022-12-09T15:06:16.612Z,97131.75
2022-12-09T15:08:43.491Z,97140.91
2022-12-09T15:11:16.328Z,97148.19
2022-12-09T15:13:47.116Z,97138.47
2022-12-09T15:16:18.261Z,97129.31
2022-12-09T15:18:46.727Z,97134.16
2022-12-09T15:21:30.223Z,97127.44
2022-12-09T15:23:59.511Z,97122.88
2022-12-09T15:26:33.133Z,97118.81
2022-12-09T15:29:05.329Z,97116.38
2022-12-09T15:31:34.374Z,97115.31
2022-12-09T15:34:11.532Z,97114.75
2022-12-09T15:36:42.257Z,97106.94
2022-12-09T15:39:28.329Z,97105.59
2022-12-09T15:42:10.960Z,97092.13
2022-12-09T15:44:53.642Z,97099.16
2022-12-09T15:47:24.517Z,97099.66
2022-12-09T15:50:22.150Z,97111.25
2022-12-09T15:52:54.256Z,97106.13
2022-12-09T15:55:30.285Z,97086.72
2022-12-09T15:58:05.299Z,97092.13
2022-12-09T16:00:37.760Z,97082.37
2022-12-09T16:03:06.591Z,97082.97
2022-12-09T16:05:39.989Z,97078.38
2022-12-09T16:08:10.323Z,97080.00
2022-12-09T16:10:50.969Z,97091.59
2022-12-09T16:13:21.550Z,97080.50
2022-12-09T16:15:52.952Z,97069.22
2022-12-09T16:18:33.658Z,97073.00
2022-12-09T16:21:12.284Z,97058.72
2022-12-09T16:23:39.740Z,97061.16
2022-12-09T16:26:07.879Z,97056.25
2022-12-09T16:28:35.868Z,97044.44
2022-12-09T16:31:21.576Z,97036.09
2022-12-09T16:33:50.470Z,97030.97
2022-12-09T16:36:26.742Z,97021.25
2022-12-09T16:39:09.555Z,97023.44
2022-12-09T16:41:55.003Z,97024.25
2022-12-09T16:44:30.771Z,97021.00
2022-12-09T16:47:27.101Z,97023.94
2022-12-09T16:49:54.915Z,97035.03
2022-12-09T16:52:25.179Z,97040.41
2022-12-09T16:54:53.028Z,97032.59
2022-12-09T16:57:21.116Z,97041.16
2022-12-09T16:59:49.312Z,97041.44
2022-12-09T17:02:35.364Z,97032.00
2022-12-09T17:05:05.550Z,97037.13
2022-12-09T17:07:34.027Z,97044.94
2022-12-09T17:10:02.230Z,97032.53
2022-12-09T17:12:30.169Z,97022.03
2022-12-09T17:14:57.972Z,97025.00
2022-12-09T17:17:25.790Z,97018.00
2022-12-09T17:19:54.041Z,97019.06
2022-12-09T17:22:21.545Z,97008.03
2022-12-09T17:24:49.392Z,97011.31
2022-12-09T17:27:17.187Z,97007.28
2022-12-09T17:29:46.715Z,97000.81
2022-12-09T17:32:14.709Z,96998.13
2022-12-09T17:34:42.484Z,97003.25
2022-12-09T17:37:10.068Z,96992.19
2022-12-09T17:39:39.894Z,96989.50
2022-12-09T17:42:08.804Z,96989.25
2022-12-09T17:44:36.422Z,96974.97
2022-12-09T17:47:03.365Z,96968.50
2022-12-09T17:49:30.623Z,96967.97
2022-12-09T17:51:58.296Z,96970.66
2022-12-09T17:54:25.461Z,96964.44
2022-12-09T17:56:52.800Z,96944.78
2022-12-09T17:59:20.847Z,96941.81
2022-12-09T18:01:48.645Z,96946.94
2022-12-09T18:04:15.771Z,96948.56
2022-12-09T18:06:44.953Z,96945.88
2022-12-09T18:09:16.305Z,96949.09
2022-12-09T18:11:44.503Z,96948.03
2022-12-09T18:14:11.926Z,96953.41
2022-12-09T18:16:39.219Z,96948.03
2022-12-09T18:19:10.752Z,96944.25
2022-12-09T18:21:38.139Z,96938.34
2022-12-09T18:24:05.695Z,96938.59
2022-12-09T18:26:38.181Z,96944.00
2022-12-09T18:29:08.370Z,96949.91
2022-12-09T18:31:35.480Z,96955.56
2022-12-09T18:34:02.612Z,96949.12
2022-12-09T18:36:29.761Z,96951.53
2022-12-09T18:38:58.378Z,96947.78
2022-12-09T18:41:29.597Z,96951.00
2022-12-09T18:43:58.642Z,96943.19
2022-12-09T18:46:35.259Z,96942.13
2022-12-09T18:49:06.216Z,96948.59
2022-12-09T18:51:33.678Z,96940.50
2022-12-09T18:54:02.571Z,96935.66
2022-12-09T18:56:30.930Z,96925.69
2022-12-09T18:59:08.004Z,96928.13
2022-12-09T19:01:40.175Z,96918.41
2022-12-09T19:04:14.997Z,96921.91
2022-12-09T19:06:44.516Z,96922.19
2022-12-09T19:09:25.005Z,96915.47
2022-12-09T19:11:53.471Z,96913.00
2022-12-09T19:14:23.643Z,96922.47
2022-12-09T19:16:52.538Z,96931.38
2022-12-09T19:19:24.012Z,96935.69
2022-12-09T19:21:56.946Z,96933.81
2022-12-09T19:24:27.615Z,96943.50
2022-12-09T19:26:58.290Z,96940.53
2022-12-09T19:29:28.426Z,96941.62
2022-12-09T19:31:57.365Z,96945.94
2022-12-09T19:34:28.174Z,96966.41
2022-12-09T19:36:57.774Z,96956.44
2022-12-09T19:39:30.589Z,96957.25
2022-12-09T19:41:59.109Z,96953.75
2022-12-09T19:44:59.365Z,96951.84
2022-12-09T19:47:15.972Z,96969.09
2022-12-09T19:49:45.032Z,96974.22
2022-12-09T19:52:13.068Z,96973.44
2022-12-09T19:54:41.054Z,96973.16
2022-12-09T19:57:08.971Z,96972.88
2022-12-09T19:59:39.133Z,96965.88
2022-12-09T20:02:08.504Z,96968.31
2022-12-09T20:04:48.853Z,96962.66
2022-12-09T20:07:19.768Z,96954.81
2022-12-09T20:09:48.100Z,96947.28
2022-12-09T20:12:16.361Z,96959.69
2022-12-09T20:14:46.890Z,96967.50
2022-12-09T20:17:13.886Z,96979.91
2022-12-09T20:19:41.261Z,96980.72
2022-12-09T20:22:09.073Z,96983.66
2022-12-09T20:24:36.568Z,96986.38
2022-12-09T20:27:04.173Z,96981.56
2022-12-09T20:29:37.528Z,96989.63
2022-12-09T20:32:06.671Z,97002.03
2022-12-09T20:34:34.990Z,96998.25
2022-12-09T20:37:03.655Z,97006.34
2022-12-09T20:39:31.035Z,97005.28
2022-12-09T20:41:59.824Z,97007.97
2022-12-09T20:44:28.415Z,96998.81
2022-12-09T20:46:56.336Z,97013.91
2022-12-09T20:49:27.629Z,97027.38
2022-12-09T20:51:55.285Z,97022.25
2022-12-09T20:54:22.693Z,97020.37
2022-12-09T20:56:50.172Z,97018.75
2022-12-09T20:59:17.468Z,97013.91
2022-12-09T21:01:47.667Z,97022.78
2022-12-09T21:04:17.882Z,97023.03
2022-12-09T21:06:45.758Z,97023.84
2022-12-09T21:09:22.271Z,97013.31
2022-12-09T21:11:51.152Z,97010.09
2022-12-09T21:14:19.258Z,97010.09
2022-12-09T21:16:53.005Z,97029.22
2022-12-09T21:19:25.368Z,97025.44
2022-12-09T21:21:54.935Z,97032.72
2022-12-09T21:24:24.252Z,97032.72
2022-12-09T21:26:57.351Z,97038.13
2022-12-09T21:29:31.392Z,97039.47
2022-12-09T21:32:03.613Z,97041.88
2022-12-09T21:34:31.529Z,97049.44
2022-12-09T21:36:59.412Z,97058.59
2022-12-09T21:39:28.513Z,97055.91
2022-12-09T21:41:55.632Z,97061.84
2022-12-09T21:44:25.695Z,97055.09
2022-12-09T21:46:53.202Z,97055.09
2022-12-09T21:49:20.397Z,97054.28
2022-12-09T21:51:47.596Z,97055.91
2022-12-09T21:54:14.471Z,97063.19
2022-12-09T21:56:42.260Z,97055.09
2022-12-09T21:59:11.416Z,97062.91
2022-12-09T22:01:41.162Z,97070.72
2022-12-09T22:04:11.629Z,97073.69
2022-12-09T22:06:39.432Z,97076.63
2022-12-09T22:09:07.967Z,97079.34
2022-12-09T22:11:36.782Z,97081.22
2022-12-09T22:14:05.277Z,97083.91
2022-12-09T22:16:35.745Z,97086.88
2022-12-09T22:19:05.298Z,97102.50
2022-12-09T22:21:33.865Z,97124.88
2022-12-09T22:24:04.038Z,97127.84
2022-12-09T22:26:31.864Z,97125.16
2022-12-09T22:29:00.521Z,97113.81
2022-12-09T22:31:30.357Z,97116.25
2022-12-09T22:34:01.503Z,97120.56
2022-12-09T22:36:28.424Z,97121.06
2022-12-09T22:38:55.457Z,97130.78
2022-12-09T22:41:25.647Z,97131.03
2022-12-09T22:43:54.297Z,97129.72
2022-12-09T22:46:23.770Z,97117.31
2022-12-09T22:48:50.864Z,97113.81
2022-12-09T22:51:23.264Z,97119.69
2022-12-09T22:53:51.531Z,97120.50
2022-12-09T22:56:19.009Z,97122.69
2022-12-09T22:58:46.318Z,97123.19
2022-12-09T23:01:28.132Z,97121.03
2022-12-09T23:03:56.480Z,97126.41
2022-12-09T23:06:24.843Z,97125.06
2022-12-09T23:08:52.107Z,97118.63
2022-12-09T23:11:21.321Z,97119.19
2022-12-09T23:13:48.550Z,97132.34
2022-12-09T23:16:18.886Z,97133.75
2022-12-09T23:18:46.376Z,97125.88
2022-12-09T23:21:14.661Z,97131.84
2022-12-09T23:23:42.547Z,97131.53
2022-12-09T23:26:12.183Z,97128.03
2022-12-09T23:28:45.048Z,97132.34
2022-12-09T23:31:14.418Z,97130.19
2022-12-09T23:33:43.350Z,97126.41
2022-12-09T23:36:17.206Z,97131.00
2022-12-09T23:38:44.599Z,97137.19
2022-12-09T23:41:12.658Z,97135.56
2022-12-09T23:43:39.455Z,97144.72
2022-12-09T23:46:15.803Z,97148.22
2022-12-09T23:48:47.483Z,97147.94
2022-12-09T23:51:22.763Z,97154.16
2022-12-09T23:53:51.735Z,97162.50
2022-12-09T23:56:21.373Z,97166.81
2022-12-09T23:58:52.614Z,97160.59
